Terminal Aerodrome Forecast
Issued by NWS

Home | Current Version | Previous Version | Text Only | Print | Product List | Glossary On
Versions: 1 2 3 4 5 6 7 8 9 10 11 12 13 14 15 16
666
FTUS41 KLWX 191120
TAFMTN
TAF
KMTN 191120Z 1912/2012 29022G41KT P6SM SCT045
     FM192000 29020G31KT P6SM SCT045
     FM192300 28015G24KT P6SM SCT045
     FM200300 28010G17KT P6SM SCT250=

USA.gov is the U.S. government's official web portal to all federal, state and local government web resources and services.